createdAt,value
2019-03-17T00:00:12.167Z,76.87
2019-03-17T00:02:41.678Z,76.93
2019-03-17T00:05:11.453Z,77.43
2019-03-17T00:07:42.533Z,77.69
2019-03-17T00:10:11.341Z,78.12
2019-03-17T00:12:40.335Z,77.88
2019-03-17T00:15:09.398Z,77.92
2019-03-17T00:17:38.043Z,77.35
2019-03-17T00:20:07.954Z,77.46
2019-03-17T00:22:36.571Z,77.81
2019-03-17T00:25:09.749Z,77.80
2019-03-17T00:27:37.361Z,77.75
2019-03-17T00:30:08.950Z,77.90
2019-03-17T00:32:37.591Z,77.87
2019-03-17T00:35:06.883Z,77.92
2019-03-17T00:37:35.682Z,77.89
2019-03-17T00:40:08.467Z,77.72
2019-03-17T00:42:37.083Z,78.46
2019-03-17T00:45:11.382Z,78.39
2019-03-17T00:47:39.376Z,78.46
2019-03-17T00:50:10.461Z,78.34
2019-03-17T00:52:39.185Z,78.11
2019-03-17T00:55:08.045Z,77.82
2019-03-17T00:57:36.729Z,77.96
2019-03-17T01:00:32.386Z,78.22
2019-03-17T01:03:01.103Z,78.00
2019-03-17T01:05:31.247Z,77.58
2019-03-17T01:08:00.495Z,77.55
2019-03-17T01:10:29.136Z,77.42
2019-03-17T01:12:57.882Z,77.76
2019-03-17T01:15:26.663Z,77.80
2019-03-17T01:17:55.393Z,77.69
2019-03-17T01:20:24.077Z,76.76
2019-03-17T01:22:52.811Z,76.05
2019-03-17T01:25:21.434Z,76.25
2019-03-17T01:27:50.226Z,76.31
2019-03-17T01:30:18.916Z,76.14
2019-03-17T01:32:47.665Z,75.93
2019-03-17T01:35:16.503Z,75.22
2019-03-17T01:37:45.221Z,75.21
2019-03-17T01:40:13.961Z,74.41
2019-03-17T01:42:42.771Z,75.14
2019-03-17T01:45:11.403Z,73.45
2019-03-17T01:47:40.144Z,72.86
2019-03-17T01:50:09.732Z,71.94
2019-03-17T01:52:38.438Z,72.05
2019-03-17T01:55:07.851Z,71.37
2019-03-17T01:57:36.575Z,71.92
2019-03-17T02:00:08.394Z,71.76
2019-03-17T02:02:37.107Z,71.64
2019-03-17T02:05:07.736Z,71.35
2019-03-17T02:07:36.499Z,71.73
2019-03-17T02:10:06.984Z,71.08
2019-03-17T02:12:35.839Z,70.93
2019-03-17T02:15:07.867Z,71.67
2019-03-17T02:17:36.617Z,71.33
2019-03-17T02:20:08.143Z,70.96
2019-03-17T02:22:36.865Z,71.29
2019-03-17T02:25:06.686Z,70.62
2019-03-17T02:27:35.408Z,70.72
2019-03-17T02:30:05.481Z,70.98
2019-03-17T02:32:34.012Z,69.94
2019-03-17T02:35:02.648Z,70.38
2019-03-17T02:37:31.414Z,70.10
2019-03-17T02:40:00.547Z,70.81
2019-03-17T02:42:29.838Z,70.81
2019-03-17T02:44:58.689Z,72.15
2019-03-17T02:47:27.380Z,72.79
2019-03-17T02:49:56.070Z,71.90
2019-03-17T02:52:24.854Z,72.22
2019-03-17T02:54:53.582Z,72.06
2019-03-17T02:57:22.298Z,71.78
2019-03-17T02:59:51.072Z,72.07
2019-03-17T03:02:19.783Z,71.68
2019-03-17T03:04:48.614Z,71.69
2019-03-17T03:07:17.321Z,71.26
2019-03-17T03:09:46.067Z,71.47
2019-03-17T03:12:14.777Z,71.25
2019-03-17T03:14:43.558Z,71.56
2019-03-17T03:17:12.763Z,70.86
2019-03-17T03:19:41.470Z,71.79
2019-03-17T03:22:10.210Z,71.89
2019-03-17T03:24:38.902Z,71.98
2019-03-17T03:27:07.581Z,72.14
2019-03-17T03:29:36.241Z,72.23
2019-03-17T03:32:05.550Z,72.06
2019-03-17T03:34:34.477Z,73.46
2019-03-17T03:37:03.032Z,75.28
2019-03-17T03:39:31.765Z,76.13
2019-03-17T03:42:00.785Z,78.77
2019-03-17T03:44:29.509Z,80.06
2019-03-17T03:46:58.126Z,80.78
2019-03-17T03:49:26.716Z,81.07
2019-03-17T03:51:55.270Z,81.01
2019-03-17T03:54:23.985Z,82.93
2019-03-17T03:56:52.641Z,83.68
2019-03-17T03:59:21.371Z,84.47
2019-03-17T04:01:50.029Z,85.02
2019-03-17T04:04:18.689Z,85.16
2019-03-17T04:06:47.309Z,85.41
2019-03-17T04:09:16.001Z,85.51
2019-03-17T04:11:44.766Z,87.09
2019-03-17T04:14:13.584Z,87.51
2019-03-17T04:16:42.207Z,87.48
2019-03-17T04:19:10.976Z,88.75
2019-03-17T04:21:39.607Z,88.59
2019-03-17T04:24:08.335Z,88.98
2019-03-17T04:26:37.058Z,89.49
2019-03-17T04:29:05.793Z,89.31
2019-03-17T04:31:34.698Z,89.97
2019-03-17T04:34:03.413Z,90.16
2019-03-17T04:36:40.171Z,90.73
2019-03-17T04:39:02.664Z,90.83
2019-03-17T04:41:31.275Z,90.25
2019-03-17T04:43:59.929Z,89.85
2019-03-17T04:46:28.658Z,90.26
2019-03-17T04:48:57.545Z,90.91
2019-03-17T04:51:26.429Z,90.54
2019-03-17T04:53:55.199Z,90.30
2019-03-17T04:56:24.046Z,90.04
2019-03-17T04:58:52.643Z,90.13
2019-03-17T05:01:21.310Z,90.83
2019-03-17T05:03:50.100Z,90.84
2019-03-17T05:06:18.726Z,90.96
2019-03-17T05:08:47.352Z,90.62
2019-03-17T05:11:16.244Z,91.33
2019-03-17T05:13:44.983Z,91.39
2019-03-17T05:16:13.673Z,91.88
2019-03-17T05:18:42.498Z,92.03
2019-03-17T05:21:11.042Z,91.89
2019-03-17T05:23:39.591Z,93.05
2019-03-17T05:26:08.241Z,93.05
2019-03-17T05:28:37.003Z,93.42
2019-03-17T05:31:05.703Z,91.09
2019-03-17T05:33:34.393Z,91.36
2019-03-17T05:36:03.170Z,93.18
2019-03-17T05:38:31.793Z,94.16
2019-03-17T05:41:00.623Z,94.83
2019-03-17T05:43:29.299Z,95.10
2019-03-17T05:45:57.926Z,95.33
2019-03-17T05:48:26.638Z,95.57
2019-03-17T05:50:55.933Z,95.68
2019-03-17T05:53:24.775Z,96.04
2019-03-17T05:55:53.467Z,96.14
2019-03-17T05:58:22.122Z,95.41
2019-03-17T06:00:50.806Z,95.23
2019-03-17T06:03:19.658Z,94.96
2019-03-17T06:05:48.351Z,95.06
2019-03-17T06:08:17.041Z,95.09
2019-03-17T06:10:45.931Z,95.00
2019-03-17T06:13:14.645Z,95.02
2019-03-17T06:15:43.365Z,94.96
2019-03-17T06:18:12.102Z,94.87
2019-03-17T06:20:40.851Z,94.42
2019-03-17T06:23:09.474Z,93.97
2019-03-17T06:25:38.118Z,93.68
2019-03-17T06:28:06.795Z,93.28
2019-03-17T06:30:35.567Z,93.63
2019-03-17T06:33:04.902Z,93.18
2019-03-17T06:35:33.772Z,93.20
2019-03-17T06:38:02.451Z,93.09
2019-03-17T06:40:31.181Z,93.09
2019-03-17T06:42:59.928Z,93.31
2019-03-17T06:45:28.661Z,93.18
2019-03-17T06:47:57.350Z,93.26
2019-03-17T06:50:26.240Z,93.01
2019-03-17T06:52:54.971Z,93.33
2019-03-17T06:55:23.693Z,93.17
2019-03-17T06:57:52.358Z,93.05
2019-03-17T07:00:21.066Z,92.73
2019-03-17T07:02:49.858Z,92.89
2019-03-17T07:05:18.394Z,92.09
2019-03-17T07:07:47.053Z,92.27
2019-03-17T07:10:15.872Z,90.86
2019-03-17T07:12:44.713Z,90.05
2019-03-17T07:15:13.543Z,89.89
2019-03-17T07:17:42.302Z,90.48
2019-03-17T07:20:13.452Z,90.11
2019-03-17T07:22:42.113Z,90.54
2019-03-17T07:25:10.956Z,90.31
2019-03-17T07:27:40.440Z,89.71
2019-03-17T07:30:14.733Z,89.83
2019-03-17T07:32:43.467Z,89.83
2019-03-17T07:35:12.264Z,90.06
2019-03-17T07:37:41.706Z,89.67
2019-03-17T07:40:12.281Z,89.43
2019-03-17T07:42:42.446Z,89.21
2019-03-17T07:45:12.702Z,88.89
2019-03-17T07:47:42.249Z,88.72
2019-03-17T07:50:14.497Z,88.69
2019-03-17T07:52:44.589Z,88.91
2019-03-17T07:55:13.479Z,88.01
2019-03-17T07:57:42.360Z,88.12
2019-03-17T08:00:15.376Z,88.25
2019-03-17T08:02:44.913Z,87.33
2019-03-17T08:05:13.767Z,86.83
2019-03-17T08:07:43.204Z,86.23
2019-03-17T08:10:13.788Z,85.69
2019-03-17T08:12:42.783Z,85.93
2019-03-17T08:15:13.883Z,86.50
2019-03-17T08:17:42.576Z,85.33
2019-03-17T08:20:16.347Z,85.42
2019-03-17T08:22:55.534Z,85.73
2019-03-17T08:25:24.323Z,85.58
2019-03-17T08:27:53.054Z,85.32
2019-03-17T08:30:21.901Z,84.76
2019-03-17T08:32:51.453Z,83.20
2019-03-17T08:35:20.064Z,81.44
2019-03-17T08:37:50.981Z,78.83
2019-03-17T08:40:23.308Z,78.83
2019-03-17T08:42:51.848Z,78.83
2019-03-17T08:45:21.934Z,77.45
2019-03-17T08:47:57.759Z,77.05
2019-03-17T08:50:23.106Z,76.97
2019-03-17T08:52:51.754Z,78.70
2019-03-17T08:55:20.484Z,79.75
2019-03-17T08:57:49.763Z,80.27
2019-03-17T09:00:19.606Z,79.46
2019-03-17T09:02:48.871Z,78.21
2019-03-17T09:05:17.596Z,77.55
2019-03-17T09:07:46.339Z,78.02
2019-03-17T09:10:18.197Z,77.79
2019-03-17T09:12:47.244Z,76.51
2019-03-17T09:15:16.013Z,76.56
2019-03-17T09:17:44.776Z,77.50
2019-03-17T09:20:16.619Z,76.02
2019-03-17T09:22:45.463Z,81.77
2019-03-17T09:25:14.184Z,83.25
2019-03-17T09:27:45.087Z,84.10
2019-03-17T09:30:15.649Z,86.40
2019-03-17T09:32:46.349Z,86.51
2019-03-17T09:35:17.414Z,87.08
2019-03-17T09:37:54.426Z,88.14
2019-03-17T09:40:23.219Z,87.04
2019-03-17T09:42:52.085Z,88.31
2019-03-17T09:45:21.042Z,87.69
2019-03-17T09:47:50.080Z,87.53
2019-03-17T09:50:20.760Z,88.26
2019-03-17T09:52:50.316Z,87.78
2019-03-17T09:55:19.450Z,87.32
2019-03-17T09:57:48.610Z,87.25
2019-03-17T10:00:21.641Z,85.36
2019-03-17T10:02:52.458Z,83.74
2019-03-17T10:05:23.697Z,82.06
2019-03-17T10:07:57.690Z,81.59
2019-03-17T10:10:28.358Z,81.28
2019-03-17T10:12:59.091Z,80.16
2019-03-17T10:15:29.002Z,78.22
2019-03-17T10:17:58.212Z,78.56
2019-03-17T10:20:27.858Z,78.87
2019-03-17T10:22:56.778Z,77.12
2019-03-17T10:25:25.784Z,78.42
2019-03-17T10:27:54.932Z,77.04
2019-03-17T10:30:24.135Z,75.70
2019-03-17T10:32:53.219Z,76.97
2019-03-17T10:35:22.260Z,75.49
2019-03-17T10:37:51.202Z,76.64
2019-03-17T10:40:23.632Z,76.68
2019-03-17T10:42:52.741Z,76.29
2019-03-17T10:45:23.304Z,76.19
2019-03-17T10:47:54.512Z,75.41
2019-03-17T10:50:28.253Z,75.68
2019-03-17T10:52:57.152Z,75.21
2019-03-17T10:55:27.740Z,74.29
2019-03-17T10:57:58.268Z,74.79
2019-03-17T11:00:33.287Z,71.97
2019-03-17T11:03:02.808Z,71.51
2019-03-17T11:05:38.524Z,74.14
2019-03-17T11:08:07.603Z,72.67
2019-03-17T11:10:39.586Z,72.21
2019-03-17T11:13:08.796Z,71.55
2019-03-17T11:15:37.608Z,70.24
2019-03-17T11:18:08.950Z,70.95
2019-03-17T11:20:39.636Z,67.73
2019-03-17T11:23:08.900Z,66.73
2019-03-17T11:25:40.917Z,67.64
2019-03-17T11:28:11.054Z,69.99
2019-03-17T11:30:42.936Z,76.35
2019-03-17T11:33:16.504Z,83.10
2019-03-17T11:35:47.025Z,87.18
2019-03-17T11:38:16.503Z,88.63
2019-03-17T11:40:45.356Z,88.98
2019-03-17T11:43:15.638Z,89.96
2019-03-17T11:45:44.787Z,90.15
2019-03-17T11:48:13.713Z,90.18
2019-03-17T11:50:44.412Z,89.70
2019-03-17T11:53:16.617Z,87.68
2019-03-17T11:55:48.279Z,88.16
2019-03-17T11:58:17.736Z,88.38
2019-03-17T12:00:49.665Z,88.78
2019-03-17T12:03:19.952Z,88.34
2019-03-17T12:05:52.257Z,88.73
2019-03-17T12:08:21.548Z,88.51
2019-03-17T12:10:52.411Z,88.45
2019-03-17T12:13:24.830Z,86.95
2019-03-17T12:16:09.203Z,87.50
2019-03-17T12:18:37.035Z,87.16
2019-03-17T12:21:09.415Z,87.08
2019-03-17T12:23:43.645Z,86.96
2019-03-17T12:26:14.054Z,87.42
2019-03-17T12:28:43.793Z,85.11
2019-03-17T12:31:23.178Z,84.83
2019-03-17T12:33:49.019Z,82.99
2019-03-17T12:36:19.162Z,82.55
2019-03-17T12:38:50.802Z,82.59
2019-03-17T12:41:27.785Z,81.68
2019-03-17T12:43:56.632Z,77.86
2019-03-17T12:46:28.795Z,76.31
2019-03-17T12:48:59.524Z,76.96
2019-03-17T12:51:31.356Z,77.63
2019-03-17T12:54:00.098Z,76.80
2019-03-17T12:56:43.200Z,76.95
2019-03-17T12:59:24.215Z,75.58
2019-03-17T13:01:52.065Z,75.69
2019-03-17T13:04:23.124Z,75.97
2019-03-17T13:06:54.378Z,74.36
2019-03-17T13:09:37.955Z,73.60
2019-03-17T13:12:23.333Z,72.11
2019-03-17T13:15:05.225Z,68.96
2019-03-17T13:17:51.534Z,70.23
2019-03-17T13:20:38.248Z,70.76
2019-03-17T13:23:26.307Z,71.98
2019-03-17T13:26:16.901Z,73.58
2019-03-17T13:29:05.241Z,73.57
2019-03-17T13:31:56.859Z,72.15
2019-03-17T13:34:33.887Z,70.18
2019-03-17T13:37:06.836Z,70.63
2019-03-17T13:39:39.242Z,68.80
2019-03-17T13:42:08.024Z,68.35
2019-03-17T13:44:36.970Z,66.03
2019-03-17T13:47:07.826Z,66.06
2019-03-17T13:49:37.420Z,65.35
2019-03-17T13:52:06.432Z,65.53
2019-03-17T13:54:35.220Z,64.51
2019-03-17T13:57:03.940Z,62.19
2019-03-17T13:59:32.682Z,62.40
2019-03-17T14:02:01.544Z,62.63
2019-03-17T14:04:30.384Z,62.13
2019-03-17T14:06:59.088Z,60.95
2019-03-17T14:09:27.834Z,61.22
2019-03-17T14:11:56.733Z,61.69
2019-03-17T14:14:25.626Z,61.09
2019-03-17T14:16:56.842Z,59.52
2019-03-17T14:19:25.733Z,57.49
2019-03-17T14:21:56.263Z,57.96
2019-03-17T14:24:25.104Z,58.75
2019-03-17T14:26:53.859Z,57.67
2019-03-17T14:29:22.593Z,57.34
2019-03-17T14:31:53.891Z,56.45
2019-03-17T14:34:24.007Z,57.48
2019-03-17T14:36:52.746Z,56.96
2019-03-17T14:39:40.626Z,57.24
2019-03-17T14:42:14.439Z,58.17
2019-03-17T14:44:44.252Z,59.56
2019-03-17T14:47:26.424Z,60.33
2019-03-17T14:50:02.879Z,58.95
2019-03-17T14:52:46.871Z,57.95
2019-03-17T14:55:30.258Z,57.92
2019-03-17T14:58:12.533Z,57.46
2019-03-17T15:00:59.398Z,57.65
2019-03-17T15:03:54.932Z,57.71
2019-03-17T15:06:41.207Z,58.31
2019-03-17T15:09:32.942Z,55.99
2019-03-17T15:12:17.459Z,55.34
2019-03-17T15:14:59.807Z,56.57
2019-03-17T15:17:55.414Z,55.33
2019-03-17T15:20:30.525Z,54.78
2019-03-17T15:23:16.942Z,53.91
2019-03-17T15:26:06.226Z,54.00
2019-03-17T15:28:50.381Z,53.75
2019-03-17T15:31:34.396Z,54.57
2019-03-17T15:34:04.186Z,56.77
2019-03-17T15:36:47.405Z,56.26
2019-03-17T15:39:32.991Z,56.80
2019-03-17T15:42:19.440Z,56.36
2019-03-17T15:45:03.855Z,57.51
2019-03-17T15:47:46.382Z,57.67
2019-03-17T15:50:32.302Z,57.77
2019-03-17T15:53:16.330Z,59.37
2019-03-17T15:55:58.397Z,61.47
2019-03-17T15:58:36.920Z,61.77
2019-03-17T16:01:07.313Z,60.94
2019-03-17T16:03:50.813Z,60.48
2019-03-17T16:06:35.200Z,60.17
2019-03-17T16:09:19.725Z,59.87
2019-03-17T16:12:05.239Z,58.38
2019-03-17T16:14:47.153Z,58.35
2019-03-17T16:17:35.362Z,58.70
2019-03-17T16:20:20.962Z,59.20
2019-03-17T16:23:14.300Z,59.11
2019-03-17T16:26:09.143Z,59.40
2019-03-17T16:31:45.909Z,59.64
2019-03-17T16:34:29.350Z,59.21
2019-03-17T16:37:14.317Z,59.32
2019-03-17T16:43:04.887Z,59.97
2019-03-17T16:45:51.178Z,60.28
2019-03-17T16:48:35.239Z,60.36
2019-03-17T16:51:17.827Z,60.94
2019-03-17T16:54:01.750Z,61.01
2019-03-17T16:56:44.763Z,62.07
2019-03-17T16:59:20.996Z,61.98
2019-03-17T17:01:53.692Z,62.62
2019-03-17T17:04:24.975Z,62.27
2019-03-17T17:07:03.649Z,62.54
2019-03-17T17:09:36.107Z,62.10
2019-03-17T17:12:07.740Z,63.16
2019-03-17T17:14:38.136Z,63.14
2019-03-17T17:17:08.536Z,63.60
2019-03-17T17:19:38.790Z,64.47
2019-03-17T17:22:10.514Z,64.26
2019-03-17T17:24:40.612Z,64.85
2019-03-17T17:27:11.158Z,64.76
2019-03-17T17:29:44.303Z,65.00
2019-03-17T17:32:14.081Z,64.44
2019-03-17T17:34:43.268Z,65.05
2019-03-17T17:37:12.120Z,65.71
2019-03-17T17:39:40.854Z,66.01
2019-03-17T17:42:10.382Z,66.50
2019-03-17T17:44:39.855Z,66.94
2019-03-17T17:47:08.507Z,66.62
2019-03-17T17:49:37.306Z,67.38
2019-03-17T17:52:06.097Z,67.03
2019-03-17T17:54:34.892Z,66.47
2019-03-17T17:57:03.566Z,66.51
2019-03-17T17:59:32.176Z,66.52
2019-03-17T18:02:00.829Z,65.98
2019-03-17T18:04:29.441Z,66.37
2019-03-17T18:06:57.966Z,66.32
2019-03-17T18:09:26.600Z,66.80
2019-03-17T18:11:55.571Z,67.51
2019-03-17T18:14:26.037Z,68.10
2019-03-17T18:16:55.770Z,68.79
2019-03-17T18:19:27.332Z,69.09
2019-03-17T18:21:56.870Z,68.44
2019-03-17T18:24:25.866Z,69.28
2019-03-17T18:26:54.785Z,68.55
2019-03-17T18:29:23.879Z,67.92
2019-03-17T18:31:52.740Z,67.74
2019-03-17T18:34:21.999Z,68.21
2019-03-17T18:36:50.961Z,67.82
2019-03-17T18:39:20.154Z,67.53
2019-03-17T18:41:52.528Z,67.92
2019-03-17T18:44:21.616Z,68.31
2019-03-17T18:46:50.921Z,68.84
2019-03-17T18:49:19.713Z,68.88
2019-03-17T18:51:48.690Z,69.57
2019-03-17T18:54:17.393Z,70.12
2019-03-17T18:56:46.339Z,70.35
2019-03-17T18:59:17.778Z,71.26
2019-03-17T19:01:45.866Z,71.41
2019-03-17T19:04:16.674Z,71.72
2019-03-17T19:06:46.877Z,72.04
2019-03-17T19:09:17.012Z,71.84
2019-03-17T19:11:48.353Z,72.13
2019-03-17T19:14:18.936Z,72.62
2019-03-17T19:16:52.326Z,72.99
2019-03-17T19:19:25.893Z,73.61
2019-03-17T19:21:55.060Z,73.33
2019-03-17T19:24:24.257Z,73.68
2019-03-17T19:26:54.839Z,73.29
2019-03-17T19:29:24.722Z,73.53
2019-03-17T19:31:55.183Z,73.57
2019-03-17T19:34:24.291Z,73.22
2019-03-17T19:36:53.319Z,73.61
2019-03-17T19:39:22.375Z,73.43
2019-03-17T19:41:51.361Z,73.19
2019-03-17T19:44:24.607Z,73.35
2019-03-17T19:46:53.975Z,73.05
2019-03-17T19:49:23.916Z,73.26
2019-03-17T19:51:54.601Z,73.38
2019-03-17T19:54:24.004Z,73.59
2019-03-17T19:56:53.511Z,73.68
2019-03-17T19:59:27.254Z,73.58
2019-03-17T20:01:59.628Z,74.08
2019-03-17T20:04:35.187Z,74.13
2019-03-17T20:07:02.331Z,73.70
2019-03-17T20:09:31.316Z,73.13
2019-03-17T20:12:01.902Z,73.44
2019-03-17T20:14:30.703Z,73.66
2019-03-17T20:16:59.594Z,73.50
2019-03-17T20:19:28.445Z,73.99
2019-03-17T20:21:58.044Z,73.94
2019-03-17T20:24:26.934Z,73.74
2019-03-17T20:26:55.650Z,73.66
2019-03-17T20:29:24.487Z,73.80
2019-03-17T20:31:53.371Z,73.16
2019-03-17T20:34:22.163Z,73.28
2019-03-17T20:36:50.956Z,73.90
2019-03-17T20:39:19.526Z,73.86
2019-03-17T20:41:48.132Z,74.10
2019-03-17T20:44:16.703Z,73.59
2019-03-17T20:46:45.343Z,73.23
2019-03-17T20:49:14.827Z,73.03
2019-03-17T20:51:43.541Z,73.26
2019-03-17T20:54:12.288Z,73.32
2019-03-17T20:56:41.092Z,73.95
2019-03-17T20:59:10.125Z,73.99
2019-03-17T21:01:38.769Z,74.24
2019-03-17T21:04:17.811Z,74.53
2019-03-17T21:06:46.684Z,75.01
2019-03-17T21:09:15.389Z,75.14
2019-03-17T21:11:44.480Z,74.59
2019-03-17T21:14:13.483Z,75.12
2019-03-17T21:16:42.197Z,75.35
2019-03-17T21:19:35.415Z,74.97
2019-03-17T21:22:05.214Z,75.25
2019-03-17T21:24:33.806Z,75.35
2019-03-17T21:27:02.660Z,76.08
2019-03-17T21:29:31.940Z,76.23
2019-03-17T21:32:04.424Z,75.62
2019-03-17T21:34:33.171Z,75.73
2019-03-17T21:37:01.668Z,76.47
2019-03-17T21:39:33.590Z,76.40
2019-03-17T21:42:03.586Z,76.40
2019-03-17T21:44:32.608Z,76.47
2019-03-17T21:47:01.300Z,76.51
2019-03-17T21:49:30.279Z,76.82
2019-03-17T21:51:59.043Z,76.89
2019-03-17T21:54:27.817Z,77.45
2019-03-17T21:56:56.497Z,77.62
2019-03-17T21:59:25.394Z,77.89
2019-03-17T22:01:54.067Z,77.91
2019-03-17T22:04:23.156Z,77.49
2019-03-17T22:06:52.039Z,77.60
2019-03-17T22:09:21.708Z,77.62
2019-03-17T22:11:50.683Z,78.21
2019-03-17T22:14:19.374Z,78.25
2019-03-17T22:16:48.490Z,77.92
2019-03-17T22:19:17.493Z,78.20
2019-03-17T22:21:46.892Z,78.36
2019-03-17T22:24:15.933Z,78.48
2019-03-17T22:26:44.576Z,78.64
2019-03-17T22:29:13.186Z,78.70
2019-03-17T22:31:42.421Z,78.87
2019-03-17T22:34:11.256Z,78.85
2019-03-17T22:36:40.263Z,79.37
2019-03-17T22:39:11.290Z,79.34
2019-03-17T22:41:39.184Z,79.54
2019-03-17T22:44:08.165Z,79.59
2019-03-17T22:46:36.719Z,79.61
2019-03-17T22:49:05.646Z,80.07
2019-03-17T22:51:34.406Z,79.89
2019-03-17T22:54:03.058Z,80.22
2019-03-17T22:56:31.860Z,80.33
2019-03-17T22:59:00.555Z,80.80
2019-03-17T23:01:29.245Z,81.02
2019-03-17T23:03:57.972Z,81.36
2019-03-17T23:06:26.633Z,81.48
2019-03-17T23:08:55.267Z,81.87
2019-03-17T23:11:24.060Z,82.25
2019-03-17T23:13:52.874Z,82.02
2019-03-17T23:16:21.532Z,81.93
2019-03-17T23:18:50.128Z,82.17
2019-03-17T23:21:18.915Z,82.27
2019-03-17T23:23:47.616Z,82.45
2019-03-17T23:26:16.263Z,82.92
2019-03-17T23:28:44.895Z,82.61
2019-03-17T23:31:13.669Z,82.68
2019-03-17T23:33:42.332Z,82.90
2019-03-17T23:36:11.061Z,82.79
2019-03-17T23:38:39.773Z,82.75
2019-03-17T23:41:08.548Z,83.03
2019-03-17T23:43:37.275Z,83.01
2019-03-17T23:46:06.005Z,83.04
2019-03-17T23:48:34.739Z,83.08
2019-03-17T23:51:03.592Z,83.35
2019-03-17T23:53:32.277Z,83.44
2019-03-17T23:56:01.016Z,83.59
2019-03-17T23:58:29.736Z,84.50
